createdAt,value
2023-01-30T00:02:08.334Z,-2.30
2023-01-30T00:04:35.291Z,-2.30
2023-01-30T00:07:02.268Z,-2.52
2023-01-30T00:09:29.178Z,-2.81
2023-01-30T00:11:56.069Z,-2.70
2023-01-30T00:14:22.992Z,-2.79
2023-01-30T00:16:49.971Z,-2.28
2023-01-30T00:19:16.984Z,-2.27
2023-01-30T00:21:43.919Z,-2.27
2023-01-30T00:24:11.159Z,-2.75
2023-01-30T00:26:38.421Z,-2.27
2023-01-30T00:29:05.444Z,-2.58
2023-01-30T00:31:32.454Z,-2.71
2023-01-30T00:33:59.370Z,-2.27
2023-01-30T00:36:26.292Z,-2.59
2023-01-30T00:38:53.167Z,-2.50
2023-01-30T00:41:20.154Z,-2.60
2023-01-30T00:44:05.902Z,-2.32
2023-01-30T00:46:52.871Z,-2.82
2023-01-30T00:49:20.364Z,-2.68
2023-01-30T00:51:47.597Z,-2.32
2023-01-30T00:54:14.722Z,-2.29
2023-01-30T00:56:41.649Z,-2.36
2023-01-30T00:59:08.592Z,-2.40
2023-01-30T01:01:35.666Z,-2.80
2023-01-30T01:04:02.803Z,-2.38
2023-01-30T01:06:29.796Z,-2.76
2023-01-30T01:08:56.739Z,-2.50
2023-01-30T01:11:26.383Z,-2.57
2023-01-30T01:13:58.277Z,-2.56
2023-01-30T01:16:26.177Z,-3.06
2023-01-30T01:18:53.679Z,-2.63
2023-01-30T01:21:21.695Z,-2.74
2023-01-30T01:23:53.283Z,-2.98
2023-01-30T01:26:20.624Z,-2.85
2023-01-30T01:28:47.924Z,-3.40
2023-01-30T01:31:17.003Z,-3.14
2023-01-30T01:33:44.488Z,-3.44
2023-01-30T01:36:12.325Z,-3.18
2023-01-30T01:38:43.317Z,-3.65
2023-01-30T01:41:13.120Z,-3.47
2023-01-30T01:44:03.194Z,-3.38
2023-01-30T01:46:38.968Z,-4.04
2023-01-30T01:49:21.337Z,-4.03
2023-01-30T01:52:12.414Z,-3.96
2023-01-30T01:54:47.484Z,-3.78
2023-01-30T01:57:38.337Z,-4.21
2023-01-30T02:00:15.074Z,-3.70
2023-01-30T02:02:50.128Z,-4.25
2023-01-30T02:05:19.833Z,-3.96
2023-01-30T02:08:54.772Z,-3.83
2023-01-30T02:11:57.214Z,-3.88
2023-01-30T02:14:50.999Z,-3.90
2023-01-30T02:17:38.070Z,-3.94
2023-01-30T02:20:49.629Z,-3.99
2023-01-30T02:24:08.868Z,-4.01
2023-01-30T02:26:47.640Z,-4.00
2023-01-30T02:29:23.741Z,-3.99
2023-01-30T02:32:03.934Z,-4.19
2023-01-30T02:34:48.667Z,-4.38
2023-01-30T02:37:21.330Z,-3.93
2023-01-30T02:40:06.239Z,-3.90
2023-01-30T02:42:51.038Z,-3.94
2023-01-30T02:45:35.034Z,-3.80
2023-01-30T02:48:06.275Z,-3.87
2023-01-30T02:50:41.954Z,-3.76
2023-01-30T02:53:09.183Z,-3.96
2023-01-30T02:55:36.657Z,-4.16
2023-01-30T02:58:05.170Z,-4.05
2023-01-30T03:01:04.003Z,-4.29
2023-01-30T03:03:45.388Z,-3.76
2023-01-30T03:06:40.394Z,-3.70
2023-01-30T03:09:22.220Z,-3.64
2023-01-30T03:12:06.363Z,-3.64
2023-01-30T03:14:49.271Z,-4.26
2023-01-30T03:17:18.756Z,-3.96
2023-01-30T03:19:46.227Z,-3.73
2023-01-30T03:22:13.187Z,-4.03
2023-01-30T03:24:40.441Z,-3.57
2023-01-30T03:27:11.178Z,-3.61
2023-01-30T03:29:38.780Z,-3.74
2023-01-30T03:32:06.532Z,-3.62
2023-01-30T03:34:33.587Z,-3.65
2023-01-30T03:37:00.719Z,-3.78
2023-01-30T03:39:27.776Z,-3.36
2023-01-30T03:41:54.804Z,-3.71
2023-01-30T03:44:21.845Z,-3.53
2023-01-30T03:46:48.769Z,-3.87
2023-01-30T03:49:15.737Z,-3.82
2023-01-30T03:51:42.659Z,-3.37
2023-01-30T03:54:09.600Z,-3.51
2023-01-30T03:56:36.580Z,-3.93
2023-01-30T03:59:04.611Z,-3.98
2023-01-30T04:01:31.560Z,-3.35
2023-01-30T04:03:58.531Z,-3.33
2023-01-30T04:06:25.478Z,-3.30
2023-01-30T04:08:53.985Z,-3.28
2023-01-30T04:11:22.059Z,-3.48
2023-01-30T04:13:48.959Z,-3.25
2023-01-30T04:16:20.643Z,-3.21
2023-01-30T04:18:47.689Z,-3.15
2023-01-30T04:21:15.159Z,-3.47
2023-01-30T04:23:42.912Z,-3.13
2023-01-30T04:26:10.997Z,-3.12
2023-01-30T04:28:38.064Z,-3.11
2023-01-30T04:31:05.286Z,-3.12
2023-01-30T04:33:36.186Z,-3.26
2023-01-30T04:36:04.885Z,-3.28
2023-01-30T04:38:33.192Z,-3.49
2023-01-30T04:41:00.785Z,-3.11
2023-01-30T04:43:29.427Z,-3.19
2023-01-30T04:45:56.643Z,-3.43
2023-01-30T04:48:25.244Z,-3.06
2023-01-30T04:50:54.474Z,-3.22
2023-01-30T04:53:22.171Z,-3.20
2023-01-30T04:55:49.383Z,-3.62
2023-01-30T04:58:17.520Z,-3.00
2023-01-30T05:00:44.457Z,-3.10
2023-01-30T05:03:11.482Z,-2.94
2023-01-30T05:05:38.485Z,-3.32
2023-01-30T05:08:05.825Z,-3.30
2023-01-30T05:10:32.758Z,-3.01
2023-01-30T05:13:04.289Z,-3.19
2023-01-30T05:15:31.775Z,-2.93
2023-01-30T05:17:58.688Z,-2.95
2023-01-30T05:20:25.947Z,-3.16
2023-01-30T05:22:53.039Z,-3.18
2023-01-30T05:25:20.346Z,-2.87
2023-01-30T05:27:47.491Z,-3.30
2023-01-30T05:30:14.522Z,-2.81
2023-01-30T05:32:44.200Z,-2.83
2023-01-30T05:35:11.190Z,-2.86
2023-01-30T05:37:38.188Z,-3.23
2023-01-30T05:40:06.525Z,-2.83
2023-01-30T05:42:33.675Z,-2.85
2023-01-30T05:45:00.556Z,-2.78
2023-01-30T05:47:27.613Z,-2.79
2023-01-30T05:49:54.513Z,-2.77
2023-01-30T05:52:21.494Z,-2.80
2023-01-30T05:54:48.359Z,-2.75
2023-01-30T05:57:15.277Z,-2.76
2023-01-30T05:59:42.209Z,-2.71
2023-01-30T06:02:11.089Z,-2.64
2023-01-30T06:04:38.221Z,-2.68
2023-01-30T06:07:05.192Z,-2.64
2023-01-30T06:09:32.148Z,-2.65
2023-01-30T06:11:59.015Z,-2.56
2023-01-30T06:14:25.939Z,-2.59
2023-01-30T06:16:53.033Z,-2.58
2023-01-30T06:19:19.969Z,-2.58
2023-01-30T06:21:46.847Z,-2.58
2023-01-30T06:24:13.828Z,-2.54
2023-01-30T06:26:40.769Z,-2.59
2023-01-30T06:29:07.706Z,-2.54
2023-01-30T06:31:34.699Z,-2.54
2023-01-30T06:34:01.699Z,-2.58
2023-01-30T06:36:28.630Z,-2.53
2023-01-30T06:38:55.646Z,-2.50
2023-01-30T06:41:22.555Z,-2.53
2023-01-30T06:43:49.726Z,-2.51
2023-01-30T06:46:16.705Z,-2.46
2023-01-30T06:48:43.671Z,-2.47
2023-01-30T06:51:10.597Z,-2.45
2023-01-30T06:53:37.527Z,-2.44
2023-01-30T06:56:04.851Z,-2.39
2023-01-30T06:58:31.783Z,-2.41
2023-01-30T07:00:58.761Z,-2.46
2023-01-30T07:03:25.710Z,-2.40
2023-01-30T07:05:52.767Z,-2.37
2023-01-30T07:08:20.044Z,-2.40
2023-01-30T07:10:47.018Z,-2.38
2023-01-30T07:13:14.413Z,-2.36
2023-01-30T07:15:41.452Z,-2.32
2023-01-30T07:18:08.522Z,-2.26
2023-01-30T07:20:35.509Z,-2.23
2023-01-30T07:23:02.556Z,-2.17
2023-01-30T07:25:29.862Z,-2.22
2023-01-30T07:28:01.789Z,-2.22
2023-01-30T07:30:32.416Z,-2.17
2023-01-30T07:33:00.518Z,-2.13
2023-01-30T07:35:30.012Z,-2.41
2023-01-30T07:37:57.071Z,-2.02
2023-01-30T07:40:24.792Z,-2.06
2023-01-30T07:42:58.809Z,-1.98
2023-01-30T07:45:28.841Z,-1.97
2023-01-30T07:47:55.767Z,-2.01
2023-01-30T07:50:22.741Z,-1.89
2023-01-30T07:52:49.643Z,-2.00
2023-01-30T07:55:16.834Z,-1.92
2023-01-30T07:57:44.325Z,-1.87
2023-01-30T08:00:12.444Z,-1.85
2023-01-30T08:02:39.385Z,-1.80
2023-01-30T08:05:06.673Z,-1.80
2023-01-30T08:07:34.290Z,-1.74
2023-01-30T08:10:01.280Z,-1.67
2023-01-30T08:12:29.317Z,-1.62
2023-01-30T08:14:56.476Z,-1.61
2023-01-30T08:17:23.514Z,-1.62
2023-01-30T08:19:50.475Z,-1.60
2023-01-30T08:22:18.069Z,-1.58
2023-01-30T08:24:44.957Z,-1.56
2023-01-30T08:27:11.932Z,-1.52
2023-01-30T08:29:38.800Z,-1.51
2023-01-30T08:32:05.750Z,-1.47
2023-01-30T08:34:32.789Z,-1.33
2023-01-30T08:36:59.756Z,-1.22
2023-01-30T08:39:26.625Z,-1.15
2023-01-30T08:41:53.582Z,-1.07
2023-01-30T08:44:20.497Z,-1.11
2023-01-30T08:46:47.412Z,-1.42
2023-01-30T08:49:14.447Z,-1.12
2023-01-30T08:51:41.364Z,-1.09
2023-01-30T08:54:08.297Z,-1.14
2023-01-30T08:56:35.617Z,-1.15
2023-01-30T08:59:02.587Z,-1.26
2023-01-30T09:01:29.497Z,-1.18
2023-01-30T09:03:56.467Z,-1.18
2023-01-30T09:06:26.011Z,-1.21
2023-01-30T09:08:53.201Z,-1.10
2023-01-30T09:11:20.136Z,-1.06
2023-01-30T09:13:48.925Z,-1.00
2023-01-30T09:16:16.772Z,-1.02
2023-01-30T09:18:44.838Z,-1.06
2023-01-30T09:21:13.897Z,-1.11
2023-01-30T09:23:41.254Z,-1.24
2023-01-30T09:26:08.349Z,-1.13
2023-01-30T09:28:35.546Z,-0.99
2023-01-30T09:31:03.407Z,-0.90
2023-01-30T09:33:30.751Z,-0.86
2023-01-30T09:35:57.926Z,-0.85
2023-01-30T09:38:24.932Z,-0.86
2023-01-30T09:41:00.995Z,-0.90
2023-01-30T09:43:54.201Z,-0.90
2023-01-30T09:46:36.635Z,-1.11
2023-01-30T09:49:43.280Z,-1.08
2023-01-30T09:52:36.240Z,-0.97
2023-01-30T09:55:14.967Z,-0.95
2023-01-30T09:57:42.091Z,-0.91
2023-01-30T10:00:23.734Z,-0.84
2023-01-30T10:03:09.309Z,-0.75
2023-01-30T10:05:44.985Z,-0.72
2023-01-30T10:08:44.052Z,-0.81
2023-01-30T10:11:35.758Z,-0.75
2023-01-30T10:14:11.539Z,-0.79
2023-01-30T10:17:13.135Z,-0.66
2023-01-30T10:20:32.765Z,-0.72
2023-01-30T10:23:33.966Z,-0.67
2023-01-30T10:26:14.716Z,-0.65
2023-01-30T10:29:06.217Z,-0.70
2023-01-30T10:31:57.516Z,-0.69
2023-01-30T10:34:36.835Z,-0.84
2023-01-30T10:37:25.099Z,-0.99
2023-01-30T10:40:37.692Z,-0.91
2023-01-30T10:43:12.559Z,-0.91
2023-01-30T10:45:47.234Z,-0.88
2023-01-30T10:48:44.003Z,-1.12
2023-01-30T10:51:29.170Z,-1.14
2023-01-30T10:54:05.505Z,-1.07
2023-01-30T10:56:32.348Z,-1.07
2023-01-30T10:59:11.879Z,-1.41
2023-01-30T11:01:45.443Z,-1.07
2023-01-30T11:04:56.908Z,-1.03
2023-01-30T11:07:23.847Z,-1.02
2023-01-30T11:09:50.812Z,-0.95
2023-01-30T11:12:17.767Z,-0.92
2023-01-30T11:14:57.002Z,-0.96
2023-01-30T11:17:32.602Z,-0.99
2023-01-30T11:20:06.330Z,-1.04
2023-01-30T11:22:35.621Z,-1.10
2023-01-30T11:25:15.240Z,-1.07
2023-01-30T11:27:44.768Z,-0.99
2023-01-30T11:30:20.116Z,-1.00
2023-01-30T11:32:49.599Z,-0.94
2023-01-30T11:35:16.439Z,-0.89
2023-01-30T11:37:45.563Z,-0.84
2023-01-30T11:40:18.847Z,-0.87
2023-01-30T11:43:10.886Z,-0.81
2023-01-30T11:45:50.186Z,-0.76
2023-01-30T11:48:33.816Z,-0.85
2023-01-30T11:51:11.266Z,-0.77
2023-01-30T11:53:46.290Z,-0.85
2023-01-30T11:56:22.638Z,-0.82
2023-01-30T11:58:59.086Z,-0.73
2023-01-30T12:01:33.336Z,-0.68
2023-01-30T12:04:01.595Z,-0.74
2023-01-30T12:06:38.383Z,-0.74
2023-01-30T12:09:06.880Z,-0.70
2023-01-30T12:11:36.874Z,-0.64
2023-01-30T12:14:38.064Z,-0.67
2023-01-30T12:17:15.184Z,-0.69
2023-01-30T12:19:52.394Z,-0.66
2023-01-30T12:22:36.502Z,-0.58
2023-01-30T12:25:27.577Z,-0.57
2023-01-30T12:28:20.583Z,-0.51
2023-01-30T12:30:57.040Z,-0.49
2023-01-30T12:33:30.085Z,-0.47
2023-01-30T12:36:08.998Z,-0.39
2023-01-30T12:38:53.369Z,-0.38
2023-01-30T12:41:29.031Z,-0.33
2023-01-30T12:43:58.666Z,-0.32
2023-01-30T12:46:49.986Z,-0.34
2023-01-30T12:49:35.816Z,-0.36
2023-01-30T12:52:28.824Z,-0.34
2023-01-30T12:55:01.654Z,-0.28
2023-01-30T12:57:53.715Z,-0.50
2023-01-30T13:00:41.037Z,-0.45
2023-01-30T13:03:49.758Z,-0.39
2023-01-30T13:06:31.684Z,-0.42
2023-01-30T13:09:08.588Z,-0.35
2023-01-30T13:11:45.535Z,-0.42
2023-01-30T13:14:41.358Z,-0.35
2023-01-30T13:17:11.135Z,-0.38
2023-01-30T13:19:46.811Z,-0.47
2023-01-30T13:22:24.826Z,-0.49
2023-01-30T13:25:27.921Z,-0.50
2023-01-30T13:28:02.701Z,-0.45
2023-01-30T13:30:32.070Z,-0.50
2023-01-30T13:33:03.945Z,-0.42
2023-01-30T13:35:45.472Z,-0.37
2023-01-30T13:38:21.479Z,-0.48
2023-01-30T13:40:52.300Z,-0.43
2023-01-30T13:43:43.013Z,-0.42
2023-01-30T13:46:13.538Z,-0.39
2023-01-30T13:48:55.558Z,-0.37
2023-01-30T13:51:31.117Z,-0.32
2023-01-30T13:54:21.416Z,-0.26
2023-01-30T13:56:54.815Z,-0.16
2023-01-30T14:00:06.356Z,-0.02
2023-01-30T14:02:33.413Z,0.07
2023-01-30T14:05:03.867Z,0.11
2023-01-30T14:07:34.451Z,0.18
2023-01-30T14:10:13.334Z,0.18
2023-01-30T14:12:52.311Z,0.17
2023-01-30T14:15:29.351Z,0.16
2023-01-30T14:18:00.032Z,0.19
2023-01-30T14:20:32.643Z,0.34
2023-01-30T14:23:03.784Z,0.39
2023-01-30T14:25:30.648Z,0.41
2023-01-30T14:28:00.325Z,0.43
2023-01-30T14:30:45.381Z,0.41
2023-01-30T14:33:21.287Z,0.38
2023-01-30T14:36:01.192Z,0.37
2023-01-30T14:38:30.798Z,0.37
2023-01-30T14:41:00.902Z,0.34
2023-01-30T14:43:43.019Z,0.31
2023-01-30T14:46:19.283Z,0.30
2023-01-30T14:48:55.606Z,0.30
2023-01-30T14:51:40.793Z,0.31
2023-01-30T14:54:14.760Z,0.31
2023-01-30T14:56:45.069Z,0.28
2023-01-30T14:59:21.673Z,0.27
2023-01-30T15:02:00.197Z,0.24
2023-01-30T15:05:05.596Z,0.28
2023-01-30T15:07:50.338Z,0.30
2023-01-30T15:10:33.074Z,0.32
2023-01-30T15:13:08.732Z,0.33
2023-01-30T15:16:04.996Z,0.35
2023-01-30T15:19:14.200Z,0.31
2023-01-30T15:21:46.898Z,0.36
2023-01-30T15:24:13.734Z,0.35
2023-01-30T15:26:49.506Z,0.37
2023-01-30T15:29:37.393Z,0.39
2023-01-30T15:32:18.496Z,0.32
2023-01-30T15:35:00.997Z,0.41
2023-01-30T15:37:37.635Z,0.49
2023-01-30T15:40:31.460Z,0.52
2023-01-30T15:43:01.140Z,0.56
2023-01-30T15:45:39.977Z,0.57
2023-01-30T15:48:35.255Z,0.57
2023-01-30T15:51:03.783Z,0.60
2023-01-30T15:53:42.088Z,0.62
2023-01-30T15:56:12.331Z,0.58
2023-01-30T15:58:44.601Z,0.66
2023-01-30T16:01:18.726Z,0.67
2023-01-30T16:03:46.373Z,0.65
2023-01-30T16:06:29.937Z,0.69
2023-01-30T16:09:05.826Z,0.69
2023-01-30T16:11:41.844Z,0.72
2023-01-30T16:14:16.905Z,0.75
2023-01-30T16:16:57.510Z,0.78
2023-01-30T16:19:31.135Z,0.73
2023-01-30T16:22:02.584Z,0.75
2023-01-30T16:24:37.864Z,0.76
2023-01-30T16:27:08.825Z,0.71
2023-01-30T16:29:51.323Z,0.68
2023-01-30T16:32:19.924Z,0.75
2023-01-30T16:34:46.996Z,0.74
2023-01-30T16:37:16.910Z,0.75
2023-01-30T16:39:45.924Z,0.73
2023-01-30T16:42:26.192Z,0.72
2023-01-30T16:45:21.316Z,0.76
2023-01-30T16:47:48.595Z,0.78
2023-01-30T16:50:22.655Z,0.82
2023-01-30T16:52:55.477Z,0.75
2023-01-30T16:55:27.049Z,0.79
2023-01-30T16:57:58.593Z,0.81
2023-01-30T17:00:32.810Z,0.84
2023-01-30T17:03:20.170Z,0.84
2023-01-30T17:05:49.646Z,0.84
2023-01-30T17:08:31.586Z,0.83
2023-01-30T17:10:59.995Z,0.82
2023-01-30T17:13:38.441Z,0.80
2023-01-30T17:16:23.695Z,0.82
2023-01-30T17:18:52.805Z,0.85
2023-01-30T17:21:21.917Z,0.88
2023-01-30T17:23:59.173Z,0.86
2023-01-30T17:26:26.685Z,0.88
2023-01-30T17:28:53.610Z,0.88
2023-01-30T17:31:21.523Z,0.90
2023-01-30T17:33:48.648Z,0.92
2023-01-30T17:36:23.842Z,0.94
2023-01-30T17:38:51.879Z,0.86
2023-01-30T17:41:24.293Z,0.88
2023-01-30T17:43:51.229Z,0.89
2023-01-30T17:46:18.567Z,0.88
2023-01-30T17:48:45.847Z,0.89
2023-01-30T17:51:14.543Z,0.87
2023-01-30T17:53:42.164Z,0.87
2023-01-30T17:56:22.867Z,0.88
2023-01-30T17:58:52.863Z,0.87
2023-01-30T18:01:20.024Z,0.82
2023-01-30T18:03:46.996Z,0.81
2023-01-30T18:06:15.888Z,0.74
2023-01-30T18:08:43.223Z,0.74
2023-01-30T18:11:12.169Z,0.70
2023-01-30T18:13:41.789Z,0.67
2023-01-30T18:16:26.070Z,0.61
2023-01-30T18:18:53.016Z,0.64
2023-01-30T18:21:22.390Z,0.60
2023-01-30T18:23:50.228Z,0.59
2023-01-30T18:26:18.969Z,0.65
2023-01-30T18:28:46.792Z,0.37
2023-01-30T18:31:14.163Z,0.67
2023-01-30T18:33:44.690Z,0.67
2023-01-30T18:36:17.030Z,0.67
2023-01-30T18:38:44.259Z,0.66
2023-01-30T18:41:19.859Z,0.67
2023-01-30T18:43:48.759Z,0.47
2023-01-30T18:46:17.368Z,0.68
2023-01-30T18:48:45.982Z,0.71
2023-01-30T18:51:16.315Z,0.72
2023-01-30T18:53:43.746Z,0.75
2023-01-30T18:56:22.849Z,0.76
2023-01-30T18:58:49.965Z,0.76
2023-01-30T19:01:20.301Z,0.71
2023-01-30T19:03:47.559Z,0.77
2023-01-30T19:06:16.685Z,0.79
2023-01-30T19:08:43.787Z,0.80
2023-01-30T19:11:34.011Z,0.84
2023-01-30T19:14:01.728Z,0.86
2023-01-30T19:16:30.645Z,0.87
2023-01-30T19:18:58.209Z,0.88
2023-01-30T19:21:25.874Z,0.93
2023-01-30T19:23:53.926Z,0.92
2023-01-30T19:26:22.605Z,0.95
2023-01-30T19:28:50.337Z,0.97
2023-01-30T19:31:21.221Z,1.03
2023-01-30T19:33:58.622Z,1.06
2023-01-30T19:36:27.640Z,1.09
2023-01-30T19:38:55.063Z,1.10
2023-01-30T19:41:25.020Z,1.13
2023-01-30T19:43:54.000Z,1.16
2023-01-30T19:46:21.609Z,1.15
2023-01-30T19:48:49.580Z,1.12
2023-01-30T19:51:22.275Z,1.21
2023-01-30T19:53:54.802Z,1.22
2023-01-30T19:56:24.947Z,1.25
2023-01-30T19:58:55.084Z,1.28
2023-01-30T20:01:24.326Z,1.25
2023-01-30T20:03:51.436Z,1.26
2023-01-30T20:06:21.085Z,1.27
2023-01-30T20:08:50.439Z,1.24
2023-01-30T20:11:18.856Z,1.26
2023-01-30T20:13:46.508Z,1.23
2023-01-30T20:16:20.884Z,1.17
2023-01-30T20:18:55.928Z,1.18
2023-01-30T20:21:23.523Z,1.17
2023-01-30T20:23:51.624Z,1.13
2023-01-30T20:26:21.815Z,1.01
2023-01-30T20:28:49.495Z,0.99
2023-01-30T20:31:21.827Z,1.00
2023-01-30T20:33:49.751Z,1.01
2023-01-30T20:36:19.290Z,1.00
2023-01-30T20:38:48.140Z,0.94
2023-01-30T20:41:20.775Z,1.01
2023-01-30T20:43:51.245Z,1.05
2023-01-30T20:46:20.744Z,1.11
2023-01-30T20:48:48.626Z,1.15
2023-01-30T20:51:18.784Z,1.20
2023-01-30T20:53:50.886Z,1.28
2023-01-30T20:56:19.039Z,1.25
2023-01-30T20:58:46.300Z,1.36
2023-01-30T21:01:23.580Z,1.44
2023-01-30T21:03:52.547Z,1.50
2023-01-30T21:06:37.122Z,1.50
2023-01-30T21:09:13.216Z,1.49
2023-01-30T21:11:40.500Z,1.53
2023-01-30T21:14:07.881Z,1.54
2023-01-30T21:16:36.216Z,1.50
2023-01-30T21:19:07.359Z,1.54
2023-01-30T21:21:44.283Z,1.51
2023-01-30T21:24:14.911Z,1.56
2023-01-30T21:26:46.482Z,1.56
2023-01-30T21:29:20.333Z,1.49
2023-01-30T21:31:47.486Z,1.52
2023-01-30T21:34:14.776Z,1.52
2023-01-30T21:36:41.802Z,1.38
2023-01-30T21:39:32.008Z,1.45
2023-01-30T21:42:01.574Z,1.36
2023-01-30T21:44:37.854Z,1.47
2023-01-30T21:47:06.820Z,1.31
2023-01-30T21:49:34.638Z,1.39
2023-01-30T21:52:01.624Z,1.32
2023-01-30T21:54:28.635Z,1.31
2023-01-30T21:56:55.736Z,1.38
2023-01-30T21:59:22.658Z,1.32
2023-01-30T22:01:49.595Z,1.36
2023-01-30T22:04:16.591Z,1.42
2023-01-30T22:06:44.082Z,1.42
2023-01-30T22:09:15.655Z,1.39
2023-01-30T22:11:43.320Z,1.42
2023-01-30T22:14:13.547Z,1.38
2023-01-30T22:16:41.239Z,1.44
2023-01-30T22:19:08.510Z,1.44
2023-01-30T22:21:40.452Z,1.43
2023-01-30T22:24:09.768Z,1.46
2023-01-30T22:26:36.923Z,1.38
2023-01-30T22:29:05.449Z,1.41
2023-01-30T22:31:35.234Z,1.46
2023-01-30T22:34:03.760Z,1.44
2023-01-30T22:36:32.698Z,1.43
2023-01-30T22:38:59.842Z,1.47
2023-01-30T22:41:28.117Z,1.45
2023-01-30T22:43:57.536Z,1.52
2023-01-30T22:46:31.726Z,1.54
2023-01-30T22:49:00.512Z,1.55
2023-01-30T22:51:32.357Z,1.45
2023-01-30T22:54:01.991Z,1.45
2023-01-30T22:56:39.589Z,1.35
2023-01-30T22:59:08.013Z,1.16
2023-01-30T23:01:38.228Z,1.05
2023-01-30T23:04:10.931Z,1.03
2023-01-30T23:06:38.457Z,1.03
2023-01-30T23:09:07.232Z,0.90
2023-01-30T23:11:37.238Z,0.88
2023-01-30T23:14:16.429Z,0.65
2023-01-30T23:16:45.171Z,0.73
2023-01-30T23:19:13.447Z,0.74
2023-01-30T23:21:46.120Z,0.80
2023-01-30T23:24:19.412Z,0.75
2023-01-30T23:26:49.250Z,0.84
2023-01-30T23:29:18.799Z,0.76
2023-01-30T23:31:47.283Z,0.83
2023-01-30T23:34:18.024Z,0.81
2023-01-30T23:36:45.934Z,0.87
2023-01-30T23:39:14.805Z,0.88
2023-01-30T23:41:43.011Z,0.92
2023-01-30T23:44:10.654Z,0.92
2023-01-30T23:46:40.639Z,0.87
2023-01-30T23:49:11.622Z,0.94
2023-01-30T23:51:41.106Z,0.95
2023-01-30T23:54:09.485Z,1.02
2023-01-30T23:56:38.850Z,0.96
2023-01-30T23:59:06.294Z,1.02
